sensor_id;sensor_type;location;lat;lon;timestamp;P1;durP1;ratioP1;P2;durP2;ratioP2
30337;SDS011;17143;51.888;5.408;2022-09-28T00:14:29;4.63;;;3.53;;
30337;SDS011;17143;51.888;5.408;2022-09-28T00:29:32;4.50;;;3.30;;
30337;SDS011;17143;51.888;5.408;2022-09-28T00:44:37;3.83;;;2.93;;
30337;SDS011;17143;51.888;5.408;2022-09-28T00:59:42;3.37;;;2.53;;
30337;SDS011;17143;51.888;5.408;2022-09-28T01:14:44;7.40;;;3.30;;
30337;SDS011;17143;51.888;5.408;2022-09-28T01:29:51;6.97;;;3.57;;
30337;SDS011;17143;51.888;5.408;2022-09-28T01:44:59;5.40;;;2.97;;
30337;SDS011;17143;51.888;5.408;2022-09-28T02:00:07;3.40;;;2.93;;
30337;SDS011;17143;51.888;5.408;2022-09-28T02:15:18;3.20;;;2.63;;
30337;SDS011;17143;51.888;5.408;2022-09-28T02:30:23;4.33;;;1.50;;
30337;SDS011;17143;51.888;5.408;2022-09-28T02:45:28;2.13;;;1.00;;
30337;SDS011;17143;51.888;5.408;2022-09-28T03:00:40;9.03;;;0.90;;
30337;SDS011;17143;51.888;5.408;2022-09-28T03:15:47;2.03;;;0.90;;
30337;SDS011;17143;51.888;5.408;2022-09-28T03:30:49;0.97;;;0.60;;
30337;SDS011;17143;51.888;5.408;2022-09-28T03:45:52;0.70;;;0.57;;
30337;SDS011;17143;51.888;5.408;2022-09-28T04:00:59;1.87;;;0.70;;
30337;SDS011;17143;51.888;5.408;2022-09-28T04:16:02;0.70;;;0.50;;
30337;SDS011;17143;51.888;5.408;2022-09-28T04:31:08;1.37;;;0.60;;
30337;SDS011;17143;51.888;5.408;2022-09-28T04:46:11;0.77;;;0.70;;
30337;SDS011;17143;51.888;5.408;2022-09-28T05:01:20;1.70;;;0.80;;
30337;SDS011;17143;51.888;5.408;2022-09-28T05:16:34;1.03;;;0.70;;
30337;SDS011;17143;51.888;5.408;2022-09-28T05:31:55;3.77;;;0.80;;
30337;SDS011;17143;51.888;5.408;2022-09-28T05:47:20;0.50;;;0.43;;
30337;SDS011;17143;51.888;5.408;2022-09-28T06:02:23;1.17;;;0.50;;
30337;SDS011;17143;51.888;5.408;2022-09-28T06:17:25;1.37;;;0.50;;
30337;SDS011;17143;51.888;5.408;2022-09-28T06:32:47;2.07;;;0.60;;
30337;SDS011;17143;51.888;5.408;2022-09-28T06:47:53;2.67;;;0.97;;
30337;SDS011;17143;51.888;5.408;2022-09-28T07:03:03;4.40;;;1.03;;
30337;SDS011;17143;51.888;5.408;2022-09-28T07:18:27;2.87;;;0.87;;
30337;SDS011;17143;51.888;5.408;2022-09-28T07:33:29;2.50;;;0.70;;
30337;SDS011;17143;51.888;5.408;2022-09-28T07:48:43;0.70;;;0.60;;
30337;SDS011;17143;51.888;5.408;2022-09-28T08:03:57;1.07;;;0.53;;
30337;SDS011;17143;51.888;5.408;2022-09-28T08:19:00;3.50;;;0.80;;
30337;SDS011;17143;51.888;5.408;2022-09-28T08:34:02;1.50;;;0.60;;
30337;SDS011;17143;51.888;5.408;2022-09-28T08:49:24;3.13;;;0.73;;
30337;SDS011;17143;51.888;5.408;2022-09-28T09:04:50;0.90;;;0.50;;
30337;SDS011;17143;51.888;5.408;2022-09-28T09:20:18;1.90;;;0.60;;
30337;SDS011;17143;51.888;5.408;2022-09-28T09:35:43;1.23;;;0.50;;
30337;SDS011;17143;51.888;5.408;2022-09-28T09:51:18;0.27;;;0.27;;
30337;SDS011;17143;51.888;5.408;2022-09-28T10:06:29;0.30;;;0.30;;
30337;SDS011;17143;51.888;5.408;2022-09-28T10:21:34;0.70;;;0.50;;
30337;SDS011;17143;51.888;5.408;2022-09-28T10:36:56;1.50;;;0.30;;
30337;SDS011;17143;51.888;5.408;2022-09-28T10:52:09;0.50;;;0.30;;
30337;SDS011;17143;51.888;5.408;2022-09-28T11:07:43;3.47;;;0.50;;
30337;SDS011;17143;51.888;5.408;2022-09-28T11:22:47;1.03;;;0.40;;
30337;SDS011;17143;51.888;5.408;2022-09-28T11:37:52;2.67;;;0.40;;
30337;SDS011;17143;51.888;5.408;2022-09-28T11:53:44;1.27;;;0.40;;
30337;SDS011;17143;51.888;5.408;2022-09-28T12:08:53;1.53;;;0.30;;
30337;SDS011;17143;51.888;5.408;2022-09-28T12:24:10;0.40;;;0.40;;
30337;SDS011;17143;51.888;5.408;2022-09-28T12:39:23;1.20;;;0.70;;
30337;SDS011;17143;51.888;5.408;2022-09-28T12:54:51;1.40;;;0.40;;
30337;SDS011;17143;51.888;5.408;2022-09-28T13:10:15;2.00;;;0.40;;
30337;SDS011;17143;51.888;5.408;2022-09-28T13:25:24;0.80;;;0.50;;
30337;SDS011;17143;51.888;5.408;2022-09-28T13:40:40;3.03;;;0.80;;
30337;SDS011;17143;51.888;5.408;2022-09-28T13:56:18;0.83;;;0.60;;
30337;SDS011;17143;51.888;5.408;2022-09-28T14:42:24;2.37;;;0.50;;
30337;SDS011;17143;51.888;5.408;2022-09-28T14:57:27;3.10;;;0.43;;
30337;SDS011;17143;51.888;5.408;2022-09-28T15:12:31;1.03;;;0.30;;
30337;SDS011;17143;51.888;5.408;2022-09-28T15:27:34;0.20;;;0.20;;
30337;SDS011;17143;51.888;5.408;2022-09-28T15:42:37;2.57;;;0.70;;
30337;SDS011;17143;51.888;5.408;2022-09-28T15:57:39;1.40;;;0.40;;
30337;SDS011;17143;51.888;5.408;2022-09-28T16:12:42;0.53;;;0.30;;
30337;SDS011;17143;51.888;5.408;2022-09-28T16:27:47;2.20;;;1.13;;
30337;SDS011;17143;51.888;5.408;2022-09-28T16:42:49;0.80;;;0.73;;
30337;SDS011;17143;51.888;5.408;2022-09-28T16:57:51;1.73;;;0.70;;
30337;SDS011;17143;51.888;5.408;2022-09-28T17:12:53;2.97;;;0.73;;
30337;SDS011;17143;51.888;5.408;2022-09-28T17:27:55;1.93;;;1.13;;
30337;SDS011;17143;51.888;5.408;2022-09-28T17:42:58;2.00;;;1.60;;
30337;SDS011;17143;51.888;5.408;2022-09-28T17:58:01;2.03;;;1.83;;
30337;SDS011;17143;51.888;5.408;2022-09-28T18:13:11;4.13;;;2.13;;
30337;SDS011;17143;51.888;5.408;2022-09-28T18:28:14;5.20;;;2.60;;
30337;SDS011;17143;51.888;5.408;2022-09-28T18:43:16;3.13;;;2.13;;
30337;SDS011;17143;51.888;5.408;2022-09-28T18:58:18;2.07;;;1.87;;
30337;SDS011;17143;51.888;5.408;2022-09-28T19:13:20;4.47;;;2.97;;
30337;SDS011;17143;51.888;5.408;2022-09-28T19:28:22;5.70;;;2.90;;
30337;SDS011;17143;51.888;5.408;2022-09-28T19:43:24;3.27;;;2.50;;
30337;SDS011;17143;51.888;5.408;2022-09-28T19:58:28;2.63;;;2.20;;
30337;SDS011;17143;51.888;5.408;2022-09-28T20:13:32;2.77;;;1.97;;
30337;SDS011;17143;51.888;5.408;2022-09-28T20:28:36;2.97;;;2.50;;
30337;SDS011;17143;51.888;5.408;2022-09-28T20:43:38;2.70;;;2.30;;
30337;SDS011;17143;51.888;5.408;2022-09-28T20:58:41;4.53;;;3.07;;
30337;SDS011;17143;51.888;5.408;2022-09-28T21:13:43;5.40;;;3.53;;
30337;SDS011;17143;51.888;5.408;2022-09-28T21:28:45;4.07;;;3.17;;
30337;SDS011;17143;51.888;5.408;2022-09-28T21:43:47;3.47;;;3.00;;
30337;SDS011;17143;51.888;5.408;2022-09-28T21:58:49;3.47;;;2.97;;
30337;SDS011;17143;51.888;5.408;2022-09-28T22:13:52;6.10;;;3.70;;
30337;SDS011;17143;51.888;5.408;2022-09-28T22:28:56;3.67;;;3.07;;
30337;SDS011;17143;51.888;5.408;2022-09-28T22:43:59;4.83;;;3.87;;
30337;SDS011;17143;51.888;5.408;2022-09-28T22:59:02;4.80;;;3.53;;
30337;SDS011;17143;51.888;5.408;2022-09-28T23:14:04;4.73;;;3.33;;
30337;SDS011;17143;51.888;5.408;2022-09-28T23:29:06;4.50;;;2.93;;
30337;SDS011;17143;51.888;5.408;2022-09-28T23:44:08;3.80;;;2.80;;
30337;SDS011;17143;51.888;5.408;2022-09-28T23:59:10;3.30;;;2.70;;
